Time;durP1;ratioP1;P1;durP2;ratioP2;P2;SDS_P1;SDS_P2;PMS_P1;PMS_P2;Temp;Humidity;BMP_temperature;BMP_pressure;BME280_temperature;BME280_humidity;BME280_pressure;Samples;Min_cycle;Max_cycle;Signal;HPM_P1;HPM_P2
2022/08/28 00:01:02;;;;;;;18.65;11.88;;;;;;;;;;5024451;28;20049;-48
2022/08/28 00:03:29;;;;;;;20.27;12.70;;;;;;;;;;5022702;28;20544;-47
2022/08/28 00:05:55;;;;;;;14.25;9.43;;;;;;;;;;5036444;28;20053;-50
2022/08/28 00:08:22;;;;;;;12.73;10.00;;;;;;;;;;5036382;28;20099;-48
2022/08/28 00:10:49;;;;;;;13.73;8.95;;;;;;;;;;5036231;28;20061;-47
2022/08/28 00:13:17;;;;;;;15.20;8.60;;;;;;;;;;5035944;28;20139;-48
2022/08/28 00:15:44;;;;;;;15.20;10.05;;;;;;;;;;5036224;28;20075;-48
2022/08/28 00:18:11;;;;;;;16.73;12.38;;;;;;;;;;5035518;28;20071;-49
2022/08/28 00:20:38;;;;;;;19.20;11.65;;;;;;;;;;5036054;28;20056;-50
2022/08/28 00:23:04;;;;;;;17.75;12.05;;;;;;;;;;5035405;28;20057;-48
2022/08/28 00:25:31;;;;;;;16.80;11.88;;;;;;;;;;5036057;28;20136;-48
2022/08/28 00:28:00;;;;;;;17.88;11.30;;;;;;;;;;5035936;28;20061;-48
2022/08/28 00:30:27;;;;;;;13.57;10.00;;;;;;;;;;5035937;28;20041;-48
2022/08/28 00:32:55;;;;;;;13.77;9.23;;;;;;;;;;5025140;28;20057;-48
2022/08/28 00:35:22;;;;;;;13.52;9.40;;;;;;;;;;5016217;28;20153;-48
2022/08/28 00:37:49;;;;;;;17.55;10.52;;;;;;;;;;5029987;28;20056;-47
2022/08/28 00:40:17;;;;;;;12.23;8.60;;;;;;;;;;5035586;28;20065;-47
2022/08/28 00:42:44;;;;;;;11.65;8.50;;;;;;;;;;5031171;28;20763;-50
2022/08/28 00:45:12;;;;;;;13.00;8.25;;;;;;;;;;5030303;28;20554;-49
2022/08/28 00:47:39;;;;;;;12.77;8.13;;;;;;;;;;5034735;28;20052;-49
2022/08/28 00:50:06;;;;;;;12.93;9.25;;;;;;;;;;5034106;28;20390;-48
2022/08/28 00:52:31;;;;;;;13.82;9.05;;;;;;;;;;5034572;28;20045;-49
2022/08/28 00:54:59;;;;;;;11.75;8.70;;;;;;;;;;5034252;28;20387;-48
2022/08/28 00:57:28;;;;;;;15.85;9.38;;;;;;;;;;5035200;28;20045;-49
2022/08/28 00:59:54;;;;;;;13.30;9.00;;;;;;;;;;5034793;28;20068;-48
2022/08/28 01:02:21;;;;;;;15.50;8.52;;;;;;;;;;5030146;28;20061;-48
2022/08/28 01:04:48;;;;;;;14.32;9.20;;;;;;;;;;5034429;28;20045;-48
2022/08/28 01:07:16;;;;;;;13.07;9.10;;;;;;;;;;5034977;28;20359;-48
2022/08/28 01:09:44;;;;;;;12.45;7.43;;;;;;;;;;5034902;28;20057;-48
2022/08/28 01:12:12;;;;;;;17.10;9.70;;;;;;;;;;5023584;28;20049;-47
2022/08/28 01:14:39;;;;;;;14.15;9.20;;;;;;;;;;5034711;28;20049;-47
2022/08/28 01:17:07;;;;;;;18.65;11.10;;;;;;;;;;5033697;28;20045;-48
2022/08/28 01:19:37;;;;;;;15.43;9.10;;;;;;;;;;5034158;28;20470;-49
2022/08/28 01:22:09;;;;;;;10.40;8.07;;;;;;;;;;5019640;28;20144;-50
2022/08/28 01:24:37;;;;;;;13.80;8.63;;;;;;;;;;5033075;28;20057;-48
2022/08/28 01:27:04;;;;;;;14.18;8.45;;;;;;;;;;5034958;28;20060;-48
2022/08/28 01:29:30;;;;;;;13.18;8.25;;;;;;;;;;5034947;28;20081;-48
2022/08/28 01:31:58;;;;;;;13.10;8.80;;;;;;;;;;5033778;28;20480;-49
2022/08/28 01:34:24;;;;;;;12.85;8.52;;;;;;;;;;5034458;28;20068;-48
2022/08/28 01:36:51;;;;;;;15.60;8.43;;;;;;;;;;5033578;28;20442;-49
2022/08/28 01:39:18;;;;;;;13.35;8.50;;;;;;;;;;5034365;28;20053;-49
2022/08/28 01:41:48;;;;;;;10.70;8.55;;;;;;;;;;5034463;28;20072;-49
2022/08/28 01:44:14;;;;;;;10.32;7.10;;;;;;;;;;5034560;28;20067;-50
2022/08/28 01:46:41;;;;;;;15.73;8.43;;;;;;;;;;5034235;28;20463;-50
2022/08/28 01:49:07;;;;;;;12.68;8.38;;;;;;;;;;5030973;28;20050;-48
2022/08/28 01:51:34;;;;;;;12.52;8.70;;;;;;;;;;5028002;28;20050;-50
2022/08/28 01:54:00;;;;;;;12.65;8.15;;;;;;;;;;5033327;28;20054;-48
2022/08/28 01:56:26;;;;;;;17.55;10.50;;;;;;;;;;5034115;28;20132;-48
2022/08/28 01:58:54;;;;;;;16.40;11.23;;;;;;;;;;5034154;28;20057;-49
2022/08/28 02:01:21;;;;;;;11.75;8.82;;;;;;;;;;5033640;28;20045;-48
2022/08/28 02:03:48;;;;;;;13.75;8.77;;;;;;;;;;5034333;28;20056;-48
2022/08/28 02:06:15;;;;;;;12.38;7.88;;;;;;;;;;5034306;28;20115;-47
2022/08/28 02:08:42;;;;;;;14.00;8.65;;;;;;;;;;5033702;28;20466;-48
2022/08/28 02:11:09;;;;;;;13.02;8.48;;;;;;;;;;5019446;28;20064;-49
2022/08/28 02:13:36;;;;;;;14.45;9.93;;;;;;;;;;5014285;28;20061;-48
2022/08/28 02:16:03;;;;;;;13.57;9.50;;;;;;;;;;5014330;28;20061;-48
2022/08/28 02:18:30;;;;;;;11.38;8.48;;;;;;;;;;5014201;28;20053;-48
2022/08/28 02:20:56;;;;;;;15.00;9.52;;;;;;;;;;5030870;28;20113;-48
2022/08/28 02:23:22;;;;;;;16.02;9.88;;;;;;;;;;5033843;28;20073;-49
2022/08/28 02:25:49;;;;;;;16.00;9.85;;;;;;;;;;5025468;28;20045;-49
2022/08/28 02:28:15;;;;;;;14.82;9.52;;;;;;;;;;5033362;28;20379;-48
2022/08/28 02:30:41;;;;;;;11.85;8.45;;;;;;;;;;5029222;28;20055;-47
2022/08/28 02:33:09;;;;;;;16.88;10.77;;;;;;;;;;5033447;28;20057;-48
2022/08/28 02:35:35;;;;;;;19.02;10.45;;;;;;;;;;5034213;28;20060;-48
2022/08/28 02:38:03;;;;;;;14.57;9.95;;;;;;;;;;5033521;28;20474;-48
2022/08/28 02:40:30;;;;;;;16.55;11.10;;;;;;;;;;5032208;28;20104;-48
2022/08/28 02:42:56;;;;;;;17.50;12.15;;;;;;;;;;5032674;28;20111;-47
2022/08/28 02:45:23;;;;;;;21.13;12.65;;;;;;;;;;5033349;28;20060;-48
2022/08/28 02:47:51;;;;;;;18.67;12.63;;;;;;;;;;5033499;28;20049;-49
2022/08/28 02:50:19;;;;;;;14.95;9.43;;;;;;;;;;5032926;28;20053;-49
2022/08/28 02:52:46;;;;;;;16.05;9.32;;;;;;;;;;5033491;28;20045;-48
2022/08/28 02:55:13;;;;;;;16.85;10.05;;;;;;;;;;5033475;28;20140;-49
2022/08/28 02:57:39;;;;;;;21.17;12.60;;;;;;;;;;5033258;28;20041;-49
2022/08/28 03:00:08;;;;;;;15.52;10.25;;;;;;;;;;5017520;28;20107;-48
2022/08/28 03:02:35;;;;;;;16.98;9.90;;;;;;;;;;5032808;28;20397;-48
2022/08/28 03:05:01;;;;;;;14.55;9.90;;;;;;;;;;5033363;28;20049;-47
2022/08/28 03:07:29;;;;;;;18.52;12.00;;;;;;;;;;5017353;28;20060;-48
2022/08/28 03:09:55;;;;;;;21.23;13.20;;;;;;;;;;5031827;28;20059;-48
2022/08/28 03:12:22;;;;;;;14.93;9.70;;;;;;;;;;5032953;28;20054;-48
2022/08/28 03:14:49;;;;;;;17.90;10.55;;;;;;;;;;5032639;28;20049;-48
2022/08/28 03:17:18;;;;;;;17.17;11.38;;;;;;;;;;5013101;28;20054;-48
2022/08/28 03:19:45;;;;;;;19.17;11.88;;;;;;;;;;5013274;28;20045;-47
2022/08/28 03:22:11;;;;;;;21.13;13.07;;;;;;;;;;5013353;28;20046;-50
2022/08/28 03:24:38;;;;;;;14.80;9.88;;;;;;;;;;5013262;28;20141;-47
2022/08/28 03:27:04;;;;;;;14.55;9.73;;;;;;;;;;5022944;28;20057;-49
2022/08/28 03:29:31;;;;;;;22.00;11.13;;;;;;;;;;5028941;28;20057;-48
2022/08/28 03:31:57;;;;;;;17.92;11.07;;;;;;;;;;5031649;28;20056;-48
2022/08/28 03:34:23;;;;;;;13.98;9.95;;;;;;;;;;5031761;28;20481;-48
2022/08/28 03:36:50;;;;;;;19.48;11.45;;;;;;;;;;5032026;28;20053;-48
2022/08/28 03:39:16;;;;;;;17.88;12.13;;;;;;;;;;5032574;28;20053;-48
2022/08/28 03:41:44;;;;;;;18.90;11.45;;;;;;;;;;5032825;28;20049;-49
2022/08/28 03:44:10;;;;;;;17.35;11.40;;;;;;;;;;5032340;28;20053;-48
2022/08/28 03:46:36;;;;;;;12.93;9.75;;;;;;;;;;5027398;28;20049;-48
2022/08/28 03:49:04;;;;;;;16.55;8.80;;;;;;;;;;5032649;28;20062;-48
2022/08/28 03:51:31;;;;;;;14.60;8.88;;;;;;;;;;5032861;28;20045;-48
2022/08/28 03:53:57;;;;;;;13.38;9.60;;;;;;;;;;5027728;28;20494;-47
2022/08/28 03:56:25;;;;;;;14.25;10.02;;;;;;;;;;5012085;28;20046;-48
2022/08/28 03:58:54;;;;;;;14.48;10.02;;;;;;;;;;5013025;28;20050;-48
2022/08/28 04:01:20;;;;;;;12.75;8.85;;;;;;;;;;5025670;28;20077;-48
2022/08/28 04:03:46;;;;;;;17.60;10.07;;;;;;;;;;5032779;28;20061;-48
2022/08/28 04:06:13;;;;;;;14.90;10.50;;;;;;;;;;5029357;28;20045;-48
2022/08/28 04:08:40;;;;;;;12.48;9.02;;;;;;;;;;5032769;28;20058;-49
2022/08/28 04:11:06;;;;;;;12.18;8.63;;;;;;;;;;5032571;28;20054;-51
2022/08/28 04:13:33;;;;;;;10.50;7.53;;;;;;;;;;5032571;28;20045;-48
2022/08/28 04:16:02;;;;;;;13.23;7.97;;;;;;;;;;5032595;28;20053;-48
2022/08/28 04:18:29;;;;;;;12.57;8.18;;;;;;;;;;5011321;28;20050;-48
2022/08/28 04:20:59;;;;;;;13.52;9.10;;;;;;;;;;5014517;28;20467;-48
2022/08/28 04:23:26;;;;;;;11.82;7.95;;;;;;;;;;5016461;28;20063;-48
2022/08/28 04:25:52;;;;;;;14.45;8.88;;;;;;;;;;5017631;28;20119;-48
2022/08/28 04:28:19;;;;;;;11.82;8.23;;;;;;;;;;5035567;28;20064;-48
2022/08/28 04:30:45;;;;;;;12.15;8.40;;;;;;;;;;5035979;28;20049;-49
2022/08/28 04:33:12;;;;;;;13.50;9.30;;;;;;;;;;5035459;28;20054;-50
2022/08/28 04:35:40;;;;;;;14.77;9.77;;;;;;;;;;5035797;28;20084;-49
2022/08/28 04:38:06;;;;;;;14.65;8.65;;;;;;;;;;5023156;28;20060;-48
2022/08/28 04:40:33;;;;;;;12.55;8.05;;;;;;;;;;5015845;28;20165;-48
2022/08/28 04:42:59;;;;;;;14.15;9.52;;;;;;;;;;5015568;28;20045;-48
2022/08/28 04:45:26;;;;;;;13.27;8.63;;;;;;;;;;5015483;28;20510;-48
2022/08/28 04:47:52;;;;;;;13.07;8.35;;;;;;;;;;5018563;28;20081;-48
2022/08/28 04:50:20;;;;;;;11.15;7.68;;;;;;;;;;5031541;28;20049;-49
2022/08/28 04:52:46;;;;;;;15.60;9.63;;;;;;;;;;5035603;28;20046;-49
2022/08/28 04:55:13;;;;;;;12.50;7.97;;;;;;;;;;5020357;28;20061;-50
2022/08/28 04:57:39;;;;;;;17.00;8.88;;;;;;;;;;5022404;28;20133;-49
2022/08/28 05:00:07;;;;;;;12.10;7.78;;;;;;;;;;5035073;28;20057;-48
2022/08/28 05:02:34;;;;;;;10.93;8.00;;;;;;;;;;5035394;28;20076;-48
2022/08/28 05:05:01;;;;;;;13.32;8.07;;;;;;;;;;5032119;28;20077;-48
2022/08/28 05:07:29;;;;;;;13.43;8.52;;;;;;;;;;5018730;28;20111;-49
2022/08/28 05:09:55;;;;;;;11.63;8.18;;;;;;;;;;5034926;28;20140;-48
2022/08/28 05:12:22;;;;;;;13.00;8.82;;;;;;;;;;5034933;28;20046;-49
2022/08/28 05:14:48;;;;;;;15.75;10.05;;;;;;;;;;5034569;28;20566;-48
2022/08/28 05:17:15;;;;;;;13.98;9.25;;;;;;;;;;5020591;28;20068;-49
2022/08/28 05:19:42;;;;;;;14.85;9.95;;;;;;;;;;5015266;28;20049;-48
2022/08/28 05:22:09;;;;;;;13.65;9.88;;;;;;;;;;5021111;28;20149;-48
2022/08/28 05:24:38;;;;;;;12.77;9.60;;;;;;;;;;5034985;28;20053;-49
2022/08/28 05:27:05;;;;;;;12.70;9.30;;;;;;;;;;5033278;28;20405;-48
2022/08/28 05:29:31;;;;;;;13.88;9.10;;;;;;;;;;5034609;28;20050;-48
2022/08/28 05:31:57;;;;;;;14.63;10.18;;;;;;;;;;5033732;28;20061;-49
2022/08/28 05:34:24;;;;;;;13.55;8.55;;;;;;;;;;5034662;28;20053;-49
2022/08/28 05:36:50;;;;;;;12.30;8.70;;;;;;;;;;5033667;28;20481;-48
2022/08/28 05:39:17;;;;;;;10.95;8.15;;;;;;;;;;5034585;28;20120;-48
2022/08/28 05:41:45;;;;;;;13.30;8.95;;;;;;;;;;5033516;28;20054;-48
2022/08/28 05:44:13;;;;;;;12.40;8.95;;;;;;;;;;5033821;28;20053;-48
2022/08/28 05:46:40;;;;;;;15.57;9.75;;;;;;;;;;5032536;28;20048;-48
2022/08/28 05:49:07;;;;;;;12.95;8.45;;;;;;;;;;5033975;28;20148;-49
2022/08/28 05:51:34;;;;;;;13.57;9.10;;;;;;;;;;5034133;28;20083;-48
2022/08/28 05:54:01;;;;;;;13.77;8.85;;;;;;;;;;5028984;28;20498;-48
2022/08/28 05:56:29;;;;;;;13.75;9.30;;;;;;;;;;5031342;28;20075;-48
2022/08/28 05:58:57;;;;;;;13.38;8.45;;;;;;;;;;5034368;28;20081;-48
2022/08/28 06:01:25;;;;;;;12.50;8.48;;;;;;;;;;5033847;28;20433;-50
2022/08/28 06:03:53;;;;;;;14.52;8.68;;;;;;;;;;5031980;28;20128;-50
2022/08/28 06:06:20;;;;;;;10.98;7.47;;;;;;;;;;5033827;28;20049;-48
2022/08/28 06:08:47;;;;;;;13.40;8.50;;;;;;;;;;5034071;28;20057;-51
2022/08/28 06:11:14;;;;;;;13.55;8.95;;;;;;;;;;5034024;28;20045;-48
2022/08/28 06:13:41;;;;;;;10.75;8.00;;;;;;;;;;5032058;28;20540;-48
2022/08/28 06:16:11;;;;;;;11.35;7.82;;;;;;;;;;5013472;28;20065;-50
2022/08/28 06:18:37;;;;;;;12.90;8.30;;;;;;;;;;5014112;28;20067;-49
2022/08/28 06:21:04;;;;;;;13.65;8.98;;;;;;;;;;5013817;28;20398;-50
2022/08/28 06:23:30;;;;;;;13.90;8.85;;;;;;;;;;5014523;28;20501;-48
2022/08/28 06:25:57;;;;;;;17.35;9.35;;;;;;;;;;5033063;28;20049;-48
2022/08/28 06:28:24;;;;;;;15.13;9.30;;;;;;;;;;5032945;28;20128;-51
2022/08/28 06:30:52;;;;;;;13.82;9.05;;;;;;;;;;5033622;28;20064;-49
2022/08/28 06:33:20;;;;;;;13.18;9.00;;;;;;;;;;5033114;28;20081;-50
2022/08/28 06:35:48;;;;;;;12.95;9.15;;;;;;;;;;5028279;28;20049;-48
2022/08/28 06:38:15;;;;;;;12.52;8.57;;;;;;;;;;5033353;28;20049;-48
2022/08/28 06:40:41;;;;;;;12.75;9.02;;;;;;;;;;5018273;28;20050;-48
2022/08/28 06:43:08;;;;;;;15.15;9.77;;;;;;;;;;5013248;28;20649;-48
2022/08/28 06:45:35;;;;;;;13.73;9.30;;;;;;;;;;5025750;28;20460;-48
2022/08/28 06:48:01;;;;;;;16.15;9.10;;;;;;;;;;5033115;28;20150;-48
2022/08/28 06:50:29;;;;;;;12.20;8.32;;;;;;;;;;5033161;28;20045;-51
2022/08/28 06:52:56;;;;;;;12.93;7.75;;;;;;;;;;5033370;28;20041;-48
2022/08/28 06:55:22;;;;;;;13.45;8.43;;;;;;;;;;5030638;28;20087;-48
2022/08/28 06:57:49;;;;;;;15.50;9.23;;;;;;;;;;5033250;28;20053;-48
2022/08/28 07:00:15;;;;;;;11.02;7.57;;;;;;;;;;5033113;28;20144;-48
2022/08/28 07:02:42;;;;;;;9.77;6.82;;;;;;;;;;5028250;28;20124;-48
2022/08/28 07:05:08;;;;;;;14.80;8.18;;;;;;;;;;5027735;28;20140;-48
2022/08/28 07:07:36;;;;;;;11.50;8.82;;;;;;;;;;5033335;28;20053;-50
2022/08/28 07:10:02;;;;;;;12.00;7.53;;;;;;;;;;5033382;28;20451;-48
2022/08/28 07:12:28;;;;;;;15.88;8.85;;;;;;;;;;5032649;28;20084;-49
2022/08/28 07:14:55;;;;;;;13.40;7.78;;;;;;;;;;5024882;28;20068;-48
2022/08/28 07:17:21;;;;;;;14.50;7.90;;;;;;;;;;5032951;28;20073;-49
2022/08/28 07:19:47;;;;;;;12.77;7.60;;;;;;;;;;5033361;28;20072;-51
2022/08/28 07:22:14;;;;;;;9.65;7.07;;;;;;;;;;5032836;28;20053;-48
2022/08/28 07:24:41;;;;;;;9.45;6.25;;;;;;;;;;5033459;28;20053;-48
2022/08/28 07:27:08;;;;;;;7.40;6.13;;;;;;;;;;5022634;28;20065;-51
2022/08/28 07:29:35;;;;;;;8.73;6.65;;;;;;;;;;5033275;28;20049;-49
2022/08/28 07:32:02;;;;;;;8.90;6.60;;;;;;;;;;5031473;28;20108;-49
2022/08/28 07:34:29;;;;;;;10.98;7.35;;;;;;;;;;5020596;28;20080;-51
2022/08/28 07:37:02;;;;;;;10.05;8.63;;;;;;;;;;5025279;28;20482;-48
2022/08/28 07:39:29;;;;;;;10.27;7.90;;;;;;;;;;5030840;28;20058;-49
2022/08/28 07:41:56;;;;;;;28.80;9.57;;;;;;;;;;5031511;28;20398;-48
2022/08/28 07:47:07;;;;;;;14.30;8.65;;;;;;;;;;5032189;28;20572;-48
2022/08/28 07:49:34;;;;;;;11.13;7.18;;;;;;;;;;5031696;28;20053;-49
2022/08/28 07:52:00;;;;;;;9.95;7.95;;;;;;;;;;5031621;28;20690;-48
2022/08/28 07:54:27;;;;;;;10.80;7.60;;;;;;;;;;5032046;28;20057;-49
2022/08/28 07:56:53;;;;;;;10.70;8.38;;;;;;;;;;5034827;28;20508;-50
2022/08/28 07:59:24;;;;;;;11.93;7.07;;;;;;;;;;5034990;28;20059;-50
2022/08/28 08:01:51;;;;;;;14.95;8.20;;;;;;;;;;5035521;28;20041;-49
2022/08/28 08:04:18;;;;;;;11.10;7.40;;;;;;;;;;5035598;28;20050;-49
2022/08/28 08:06:45;;;;;;;13.00;7.63;;;;;;;;;;5035909;28;20087;-50
2022/08/28 08:09:13;;;;;;;9.43;7.03;;;;;;;;;;5035539;28;20053;-50
2022/08/28 08:11:39;;;;;;;10.57;6.68;;;;;;;;;;5035313;28;20127;-49
2022/08/28 08:14:06;;;;;;;11.75;7.80;;;;;;;;;;5034465;28;20477;-52
2022/08/28 08:16:37;;;;;;;11.60;6.22;;;;;;;;;;5035673;28;20107;-49
2022/08/28 08:19:04;;;;;;;8.82;6.30;;;;;;;;;;5035368;28;20057;-50
2022/08/28 08:21:31;;;;;;;10.77;7.55;;;;;;;;;;5034813;28;20135;-49
2022/08/28 08:23:57;;;;;;;12.07;6.63;;;;;;;;;;5035301;28;20041;-49
2022/08/28 08:26:26;;;;;;;9.75;6.82;;;;;;;;;;5035000;28;20053;-51
2022/08/28 08:28:53;;;;;;;8.48;6.15;;;;;;;;;;5030159;28;20045;-52
2022/08/28 08:31:20;;;;;;;10.30;6.53;;;;;;;;;;5033802;28;20068;-48
2022/08/28 08:33:49;;;;;;;10.07;6.80;;;;;;;;;;5035342;28;20132;-48
2022/08/28 08:36:17;;;;;;;9.10;5.95;;;;;;;;;;5035375;28;20477;-48
2022/08/28 08:38:43;;;;;;;12.30;7.07;;;;;;;;;;5032840;28;20053;-51
2022/08/28 08:41:14;;;;;;;8.77;6.30;;;;;;;;;;5034802;28;20057;-49
2022/08/28 08:43:48;;;;;;;11.73;7.43;;;;;;;;;;5034770;28;20068;-51
2022/08/28 08:46:14;;;;;;;11.27;6.22;;;;;;;;;;5035026;28;20057;-48
2022/08/28 08:48:42;;;;;;;9.98;6.30;;;;;;;;;;5035122;28;20056;-48
2022/08/28 08:51:13;;;;;;;13.60;7.45;;;;;;;;;;5034289;28;20060;-50
2022/08/28 08:53:44;;;;;;;10.32;7.05;;;;;;;;;;5034718;28;20169;-49
2022/08/28 08:56:14;;;;;;;10.98;6.93;;;;;;;;;;5035276;28;20415;-51
2022/08/28 08:58:41;;;;;;;9.63;6.88;;;;;;;;;;5033935;28;20462;-52
2022/08/28 09:01:11;;;;;;;9.43;6.90;;;;;;;;;;5034564;28;20068;-50
2022/08/28 09:03:49;;;;;;;9.85;6.43;;;;;;;;;;5034970;28;20075;-50
2022/08/28 09:06:24;;;;;;;9.73;7.80;;;;;;;;;;5032899;28;20060;-49
2022/08/28 09:08:56;;;;;;;11.48;7.63;;;;;;;;;;5034367;28;20061;-48
2022/08/28 09:11:27;;;;;;;13.52;7.40;;;;;;;;;;5034552;28;20183;-49
2022/08/28 09:13:58;;;;;;;16.00;10.15;;;;;;;;;;5034186;28;20056;-49
2022/08/28 09:16:28;;;;;;;22.85;12.82;;;;;;;;;;5034871;28;20064;-49
2022/08/28 09:18:55;;;;;;;10.70;7.25;;;;;;;;;;5034157;28;20621;-48
2022/08/28 09:21:29;;;;;;;12.50;7.30;;;;;;;;;;5034312;28;20057;-49
2022/08/28 09:23:55;;;;;;;8.38;5.80;;;;;;;;;;5034507;28;20484;-50
2022/08/28 09:26:22;;;;;;;14.05;6.85;;;;;;;;;;5022006;28;20061;-49
2022/08/28 09:28:59;;;;;;;8.15;6.55;;;;;;;;;;5033385;28;20057;-50
2022/08/28 09:31:31;;;;;;;8.38;6.18;;;;;;;;;;5023564;28;20097;-51
2022/08/28 09:34:15;;;;;;;9.13;6.70;;;;;;;;;;5023816;28;20115;-49
2022/08/28 09:36:43;;;;;;;9.90;6.28;;;;;;;;;;5021490;28;20049;-49
2022/08/28 09:39:12;;;;;;;26.75;7.75;;;;;;;;;;5027613;28;20068;-49
2022/08/28 09:44:33;;;;;;;10.13;7.13;;;;;;;;;;5026176;28;20060;-49
2022/08/28 09:46:59;;;;;;;9.20;6.95;;;;;;;;;;5033292;28;20053;-48
2022/08/28 09:49:27;;;;;;;6.38;5.65;;;;;;;;;;5024671;28;20049;-49
2022/08/28 09:51:55;;;;;;;6.88;5.32;;;;;;;;;;5029281;28;20525;-50
2022/08/28 09:54:23;;;;;;;9.77;6.28;;;;;;;;;;5031961;28;20080;-50
2022/08/28 09:56:50;;;;;;;9.65;6.53;;;;;;;;;;5033320;28;20497;-53
2022/08/28 09:59:17;;;;;;;10.55;6.40;;;;;;;;;;5031843;28;20064;-52
2022/08/28 10:01:49;;;;;;;9.95;6.40;;;;;;;;;;5033345;28;20149;-50
2022/08/28 10:04:33;;;;;;;11.68;6.63;;;;;;;;;;5033952;28;20076;-49
2022/08/28 10:07:04;;;;;;;9.25;6.28;;;;;;;;;;5023181;28;20068;-49
2022/08/28 10:09:32;;;;;;;12.93;7.10;;;;;;;;;;5033593;28;20060;-49
2022/08/28 10:12:01;;;;;;;9.80;6.03;;;;;;;;;;5023185;28;20490;-49
2022/08/28 10:14:42;;;;;;;10.25;6.82;;;;;;;;;;5033276;28;20466;-49
2022/08/28 10:17:14;;;;;;;6.68;5.57;;;;;;;;;;5030965;28;20140;-49
2022/08/28 10:19:46;;;;;;;16.95;6.43;;;;;;;;;;5031997;28;20670;-49
2022/08/28 10:22:21;;;;;;;13.48;7.32;;;;;;;;;;5029168;28;20132;-52
2022/08/28 10:24:54;;;;;;;10.38;6.72;;;;;;;;;;5026435;28;20076;-48
2022/08/28 10:27:30;;;;;;;12.82;6.53;;;;;;;;;;5033032;28;20053;-48
2022/08/28 10:29:59;;;;;;;7.00;5.72;;;;;;;;;;5028514;28;20391;-48
2022/08/28 10:32:42;;;;;;;15.07;7.85;;;;;;;;;;5032662;28;20475;-49
2022/08/28 10:35:14;;;;;;;11.00;7.35;;;;;;;;;;5032812;28;20049;-48
2022/08/28 10:37:46;;;;;;;10.35;6.18;;;;;;;;;;5033358;28;20077;-48
2022/08/28 10:40:15;;;;;;;10.23;6.15;;;;;;;;;;5033098;28;20068;-48
2022/08/28 10:42:43;;;;;;;7.53;5.93;;;;;;;;;;5032745;28;20064;-50
2022/08/28 10:45:12;;;;;;;11.73;6.95;;;;;;;;;;5027536;28;20080;-50
2022/08/28 10:47:40;;;;;;;9.75;6.40;;;;;;;;;;5023312;28;20060;-49
2022/08/28 10:50:10;;;;;;;8.93;6.95;;;;;;;;;;5026027;28;20104;-48
2022/08/28 10:52:39;;;;;;;12.00;7.72;;;;;;;;;;5016277;28;20050;-49
2022/08/28 10:55:10;;;;;;;12.35;7.10;;;;;;;;;;5028867;28;20041;-48
2022/08/28 10:57:41;;;;;;;7.30;5.85;;;;;;;;;;5032853;28;20057;-49
2022/08/28 11:00:10;;;;;;;11.55;6.70;;;;;;;;;;5032210;28;20061;-48
2022/08/28 11:02:37;;;;;;;7.75;5.18;;;;;;;;;;5033162;28;20140;-48
2022/08/28 11:05:04;;;;;;;14.88;7.28;;;;;;;;;;5028096;28;20049;-48
2022/08/28 11:07:32;;;;;;;10.77;7.10;;;;;;;;;;5029489;28;20132;-49
2022/08/28 11:10:13;;;;;;;10.27;7.10;;;;;;;;;;5032088;28;20055;-49
2022/08/28 11:15:46;;;;;;;11.50;6.93;;;;;;;;;;5016052;28;20032;-48
2022/08/28 11:18:31;;;;;;;13.45;7.25;;;;;;;;;;5019909;28;20128;-51
2022/08/28 11:20:57;;;;;;;;;;;;;;;;;;5023760;28;20058;-55
2022/08/28 11:23:28;;;;;;;12.98;6.90;;;;;;;;;;5022254;28;19971;-53
2022/08/28 11:25:57;;;;;;;11.40;6.15;;;;;;;;;;5011082;28;20112;-52
2022/08/28 11:28:39;;;;;;;13.23;7.65;;;;;;;;;;5011395;28;20058;-52
2022/08/28 11:31:24;;;;;;;15.05;8.75;;;;;;;;;;5014292;28;20054;-53
2022/08/28 11:33:54;;;;;;;12.90;7.40;;;;;;;;;;5015994;28;20064;-52
2022/08/28 11:36:35;;;;;;;12.63;8.48;;;;;;;;;;5017924;28;20486;-53
2022/08/28 11:39:04;;;;;;;16.95;9.05;;;;;;;;;;5034773;28;20385;-51
2022/08/28 11:41:31;;;;;;;14.45;9.70;;;;;;;;;;5034915;28;20049;-50
2022/08/28 11:44:16;;;;;;;11.35;8.38;;;;;;;;;;5035805;28;20060;-52
2022/08/28 11:46:43;;;;;;;14.45;9.55;;;;;;;;;;5035317;28;20053;-50
2022/08/28 11:49:25;;;;;;;14.25;10.13;;;;;;;;;;5026633;28;20041;-51
2022/08/28 11:51:58;;;;;;;12.80;9.52;;;;;;;;;;5034808;28;20061;-53
2022/08/28 11:54:34;;;;;;;15.27;9.52;;;;;;;;;;5028274;28;20054;-52
2022/08/28 11:57:04;;;;;;;15.68;9.70;;;;;;;;;;5016221;28;20068;-50
2022/08/28 11:59:38;;;;;;;18.00;11.13;;;;;;;;;;5016768;28;20054;-50
2022/08/28 12:02:23;;;;;;;14.90;8.88;;;;;;;;;;5035105;28;20045;-51
2022/08/28 12:04:49;;;;;;;15.30;10.25;;;;;;;;;;5036111;28;20059;-50
2022/08/28 12:07:21;;;;;;;9.68;7.97;;;;;;;;;;5036245;28;20049;-50
2022/08/28 12:09:49;;;;;;;14.02;9.68;;;;;;;;;;5036133;28;20099;-50
2022/08/28 12:12:34;;;;;;;13.70;7.90;;;;;;;;;;5035946;28;20053;-50
2022/08/28 12:15:02;;;;;;;11.75;9.18;;;;;;;;;;5035669;28;20378;-50
2022/08/28 12:17:51;;;;;;;11.80;9.00;;;;;;;;;;5035647;28;20060;-51
2022/08/28 12:20:23;;;;;;;9.38;7.78;;;;;;;;;;5035957;28;20049;-50
2022/08/28 12:22:52;;;;;;;10.35;7.57;;;;;;;;;;5035273;28;20411;-54
2022/08/28 12:25:24;;;;;;;10.43;8.05;;;;;;;;;;5035740;28;20133;-51
2022/08/28 12:27:51;;;;;;;14.30;7.75;;;;;;;;;;5036048;28;20068;-54
2022/08/28 12:30:26;;;;;;;9.90;7.85;;;;;;;;;;5035844;28;20053;-54
2022/08/28 12:32:56;;;;;;;9.90;7.57;;;;;;;;;;5035562;28;20413;-54
2022/08/28 12:35:23;;;;;;;9.55;6.85;;;;;;;;;;5035730;28;20374;-53
2022/08/28 12:38:00;;;;;;;11.48;8.05;;;;;;;;;;5035645;28;20053;-54
2022/08/28 12:40:28;;;;;;;14.75;8.95;;;;;;;;;;5035711;28;20050;-50
2022/08/28 12:42:57;;;;;;;11.80;8.30;;;;;;;;;;5035568;28;20060;-51
2022/08/28 12:45:25;;;;;;;15.50;9.80;;;;;;;;;;5035359;28;20053;-52
2022/08/28 12:47:53;;;;;;;11.73;8.77;;;;;;;;;;5035240;28;20406;-51
2022/08/28 12:50:20;;;;;;;10.75;8.93;;;;;;;;;;5035206;28;20053;-54
2022/08/28 12:52:48;;;;;;;15.55;8.65;;;;;;;;;;5035607;28;20119;-51
2022/08/28 12:55:16;;;;;;;10.05;7.88;;;;;;;;;;5020386;28;20049;-54
2022/08/28 12:57:43;;;;;;;12.95;9.55;;;;;;;;;;5015803;28;20058;-51
2022/08/28 13:00:11;;;;;;;10.80;8.75;;;;;;;;;;5018763;28;20053;-52
2022/08/28 13:02:37;;;;;;;12.07;9.45;;;;;;;;;;5035296;28;20083;-53
2022/08/28 13:05:05;;;;;;;11.10;8.40;;;;;;;;;;5035461;28;20049;-51
2022/08/28 13:07:34;;;;;;;10.88;8.88;;;;;;;;;;5035261;28;20144;-54
2022/08/28 13:10:02;;;;;;;15.13;10.88;;;;;;;;;;5035289;28;20045;-51
2022/08/28 13:12:32;;;;;;;11.60;10.02;;;;;;;;;;5035200;28;20069;-50
2022/08/28 13:14:58;;;;;;;13.50;10.25;;;;;;;;;;5035333;28;20436;-52
2022/08/28 13:17:44;;;;;;;12.98;9.90;;;;;;;;;;5034771;28;20643;-53
2022/08/28 13:20:10;;;;;;;12.55;10.63;;;;;;;;;;5035222;28;20049;-53
2022/08/28 13:22:39;;;;;;;14.27;10.05;;;;;;;;;;5034816;28;20045;-53
2022/08/28 13:25:06;;;;;;;11.65;9.88;;;;;;;;;;5034746;28;20154;-52
2022/08/28 13:27:34;;;;;;;18.92;11.90;;;;;;;;;;5034924;28;20053;-50
2022/08/28 13:30:06;;;;;;;13.65;9.65;;;;;;;;;;5034486;28;20462;-51
2022/08/28 13:32:35;;;;;;;13.82;9.85;;;;;;;;;;5034316;28;20069;-52
2022/08/28 13:35:04;;;;;;;12.02;8.40;;;;;;;;;;5034466;28;20049;-53
2022/08/28 13:37:41;;;;;;;18.08;12.00;;;;;;;;;;5034479;28;20064;-54
2022/08/28 13:40:09;;;;;;;13.52;9.48;;;;;;;;;;5034629;28;20115;-53
2022/08/28 13:42:37;;;;;;;13.57;9.75;;;;;;;;;;5034620;28;20092;-53
2022/08/28 13:45:03;;;;;;;14.45;9.50;;;;;;;;;;5033987;28;20061;-50
2022/08/28 13:47:30;;;;;;;15.55;10.98;;;;;;;;;;5034056;28;20532;-50
2022/08/28 13:49:56;;;;;;;13.10;8.98;;;;;;;;;;5034327;28;20053;-51
2022/08/28 13:52:23;;;;;;;17.45;10.20;;;;;;;;;;5034059;28;20053;-50
2022/08/28 13:54:49;;;;;;;15.05;8.05;;;;;;;;;;5022577;28;20050;-50
2022/08/28 13:57:16;;;;;;;15.02;9.70;;;;;;;;;;5014386;28;20057;-50
2022/08/28 13:59:43;;;;;;;10.73;7.15;;;;;;;;;;5014862;28;20049;-50
2022/08/28 14:04:55;;;;;;;8.25;5.20;;;;;;;;;;5034178;28;20464;-51
2022/08/28 14:07:22;;;;;;;7.65;4.93;;;;;;;;;;5034253;28;20128;-53
2022/08/28 14:09:48;;;;;;;7.03;4.55;;;;;;;;;;5033497;28;20126;-51
2022/08/28 14:12:14;;;;;;;7.32;5.15;;;;;;;;;;5033836;28;20049;-50
2022/08/28 14:14:41;;;;;;;9.82;4.60;;;;;;;;;;5032861;28;20041;-51
2022/08/28 14:17:08;;;;;;;8.82;5.32;;;;;;;;;;5033808;28;20049;-50
2022/08/28 14:19:35;;;;;;;5.20;4.32;;;;;;;;;;5033293;28;20064;-51
2022/08/28 14:22:02;;;;;;;9.73;5.70;;;;;;;;;;5033662;28;20076;-54
2022/08/28 14:24:29;;;;;;;12.15;6.10;;;;;;;;;;5033828;28;20056;-51
2022/08/28 14:26:56;;;;;;;6.65;5.00;;;;;;;;;;5033557;28;20382;-51
2022/08/28 14:29:22;;;;;;;8.45;5.30;;;;;;;;;;5033445;28;20360;-50
2022/08/28 14:31:49;;;;;;;10.15;4.93;;;;;;;;;;5032979;28;20486;-53
2022/08/28 14:34:18;;;;;;;6.65;4.03;;;;;;;;;;5033671;28;20139;-50
2022/08/28 14:36:44;;;;;;;7.97;4.47;;;;;;;;;;5033404;28;20486;-52
2022/08/28 14:39:12;;;;;;;5.35;4.07;;;;;;;;;;5033555;28;20073;-51
2022/08/28 14:41:42;;;;;;;8.02;4.90;;;;;;;;;;5033467;28;20045;-53
2022/08/28 14:44:08;;;;;;;8.95;4.97;;;;;;;;;;5033248;28;20053;-54
2022/08/28 14:46:36;;;;;;;5.40;4.47;;;;;;;;;;5033511;28;20042;-54
2022/08/28 14:49:04;;;;;;;8.57;4.90;;;;;;;;;;5032864;28;20394;-50